JBU855 KSYR-KMCO
Flight info
| Callsign | JBU855 |
|---|---|
| Flight time | N/A |
| Altitude | 36000 |
| Route | SYR PTAKI STUBN PSB Q71 EMNEM Q103 SLOJO/N0444F370 EFFAY/N0444F360 Q83 ROYCO Q85 LPERD SNFLD3 |
| Aircraft | A321/M-SDE3FGHIRWY/LB1 |
Departure
| Time | 2026-04-12 21:57 |
|---|---|
| Airport | Syracuse Hancock International Airport (KSYR) |
Arrival
| Time | N/A |
|---|---|
| Airport | Orlando International Airport (KMCO) |
| Time | Latitude | Longitude | Altitude | Speed | Heading |
|---|---|---|---|---|---|
| 2026-04-12 21:41 | 43.11250 | -76.10944 | 420 ft | 0 kts | 357° |
| 2026-04-12 21:47 | 43.11246 | -76.10944 | 420 ft | 1 kts | 358° |
| 2026-04-12 21:47 | 43.11231 | -76.10941 | 420 ft | 2 kts | 334° |
| 2026-04-12 21:48 | 43.11219 | -76.10931 | 420 ft | 2 kts | 319° |
| 2026-04-12 21:48 | 43.11217 | -76.10928 | 420 ft | 2 kts | 315° |
| 2026-04-12 21:48 | 43.11215 | -76.10925 | 420 ft | 2 kts | 311° |
| 2026-04-12 21:48 | 43.11209 | -76.10915 | 420 ft | 2 kts | 298° |
| 2026-04-12 21:49 | 43.11204 | -76.10895 | 420 ft | 2 kts | 280° |
| 2026-04-12 21:49 | 43.11203 | -76.10877 | 420 ft | 0 kts | 263° |
| 2026-04-12 21:49 | 43.11205 | -76.10869 | 420 ft | 1 kts | 260° |
| 2026-04-12 21:49 | 43.11205 | -76.10867 | 420 ft | 0 kts | 260° |
| 2026-04-12 21:51 | 43.11204 | -76.10873 | 420 ft | 5 kts | 261° |
| 2026-04-12 21:51 | 43.11196 | -76.10967 | 420 ft | 10 kts | 264° |
| 2026-04-12 21:52 | 43.11189 | -76.11067 | 421 ft | 10 kts | 268° |
| 2026-04-12 21:52 | 43.11149 | -76.11146 | 421 ft | 10 kts | 203° |
| 2026-04-12 21:52 | 43.11071 | -76.11144 | 421 ft | 11 kts | 173° |
| 2026-04-12 21:52 | 43.10998 | -76.11177 | 421 ft | 11 kts | 242° |
| 2026-04-12 21:53 | 43.10987 | -76.11289 | 422 ft | 12 kts | 268° |
| 2026-04-12 21:53 | 43.10983 | -76.11451 | 423 ft | 27 kts | 266° |
| 2026-04-12 21:53 | 43.10980 | -76.11522 | 423 ft | 28 kts | 269° |
| 2026-04-12 21:53 | 43.10974 | -76.11762 | 424 ft | 16 kts | 267° |
| 2026-04-12 21:54 | 43.10967 | -76.11921 | 424 ft | 19 kts | 266° |
| 2026-04-12 21:54 | 43.10962 | -76.12132 | 424 ft | 22 kts | 269° |
| 2026-04-12 21:54 | 43.10954 | -76.12345 | 424 ft | 22 kts | 266° |
| 2026-04-12 21:54 | 43.10946 | -76.12550 | 424 ft | 17 kts | 266° |
| 2026-04-12 21:55 | 43.10925 | -76.12620 | 424 ft | 0 kts | 218° |
| 2026-04-12 21:55 | 43.10924 | -76.12621 | 424 ft | 0 kts | 218° |
| 2026-04-12 21:55 | 43.10923 | -76.12622 | 424 ft | 0 kts | 217° |
| 2026-04-12 21:56 | 43.10915 | -76.12627 | 424 ft | 1 kts | 204° |
| 2026-04-12 21:56 | 43.10842 | -76.12600 | 424 ft | 16 kts | 151° |
| 2026-04-12 21:56 | 43.10820 | -76.12504 | 424 ft | 4 kts | 86° |
| 2026-04-12 21:56 | 43.10822 | -76.12463 | 424 ft | 25 kts | 85° |
| 2026-04-12 21:57 | 43.10842 | -76.11881 | 424 ft | 94 kts | 86° |
| 2026-04-12 21:57 | 43.10886 | -76.10703 | 417 ft | 152 kts | 88° |
| 2026-04-12 21:57 | 43.10970 | -76.09141 | 699 ft | 172 kts | 89° |
| 2026-04-12 21:57 | 43.11060 | -76.07512 | 1375 ft | 170 kts | 91° |
| 2026-04-12 21:58 | 43.11179 | -76.05938 | 2039 ft | 167 kts | 90° |
| 2026-04-12 21:58 | 43.11357 | -76.04371 | 2477 ft | 174 kts | 90° |
| 2026-04-12 21:58 | 43.11542 | -76.02662 | 2795 ft | 188 kts | 90° |
| 2026-04-12 21:58 | 43.11737 | -76.00849 | 3212 ft | 197 kts | 90° |
| 2026-04-12 21:59 | 43.11943 | -75.98910 | 3580 ft | 211 kts | 89° |
| 2026-04-12 21:59 | 43.12225 | -75.96918 | 4019 ft | 222 kts | 81° |
| 2026-04-12 21:59 | 43.12528 | -75.94833 | 4492 ft | 225 kts | 94° |
| 2026-04-12 21:59 | 43.12096 | -75.92815 | 4874 ft | 220 kts | 133° |
| 2026-04-12 22:00 | 43.10871 | -75.91698 | 5150 ft | 218 kts | 176° |
| 2026-04-12 22:00 | 43.09391 | -75.92021 | 5474 ft | 220 kts | 216° |
| 2026-04-12 22:00 | 43.08310 | -75.93542 | 5816 ft | 233 kts | 238° |
| 2026-04-12 22:00 | 43.07386 | -75.95417 | 6334 ft | 245 kts | 236° |
| 2026-04-12 22:01 | 43.06331 | -75.97277 | 7036 ft | 249 kts | 237° |
| 2026-04-12 22:01 | 43.05345 | -75.99200 | 7829 ft | 248 kts | 239° |
| 2026-04-12 22:01 | 43.04304 | -76.01016 | 8755 ft | 244 kts | 233° |
| 2026-04-12 22:01 | 43.03166 | -76.02658 | 9617 ft | 239 kts | 232° |
| 2026-04-12 22:02 | 43.02004 | -76.04329 | 10256 ft | 243 kts | 233° |
| 2026-04-12 22:02 | 43.00833 | -76.06078 | 10586 ft | 258 kts | 233° |
| 2026-04-12 22:02 | 42.99596 | -76.07948 | 10891 ft | 274 kts | 233° |
| 2026-04-12 22:02 | 42.98296 | -76.09914 | 11346 ft | 283 kts | 234° |
| 2026-04-12 22:03 | 42.97042 | -76.11807 | 11879 ft | 287 kts | 234° |
| 2026-04-12 22:03 | 42.95719 | -76.13813 | 12510 ft | 289 kts | 234° |
| 2026-04-12 22:03 | 42.94346 | -76.15895 | 13103 ft | 292 kts | 234° |
| 2026-04-12 22:03 | 42.92981 | -76.17963 | 13648 ft | 297 kts | 235° |
| 2026-04-12 22:04 | 42.91605 | -76.20054 | 14186 ft | 301 kts | 234° |
| 2026-04-12 22:04 | 42.90205 | -76.22177 | 14693 ft | 305 kts | 234° |
| 2026-04-12 22:04 | 42.88776 | -76.24349 | 15235 ft | 309 kts | 234° |
| 2026-04-12 22:04 | 42.87322 | -76.26553 | 15725 ft | 313 kts | 234° |
| 2026-04-12 22:05 | 42.85860 | -76.28768 | 16277 ft | 315 kts | 234° |
| 2026-04-12 22:05 | 42.84403 | -76.30971 | 16780 ft | 319 kts | 234° |
| 2026-04-12 22:05 | 42.83020 | -76.33061 | 17182 ft | 323 kts | 234° |
| 2026-04-12 22:05 | 42.81517 | -76.35333 | 17638 ft | 327 kts | 234° |
| 2026-04-12 22:06 | 42.79980 | -76.37653 | 18067 ft | 332 kts | 234° |
| 2026-04-12 22:06 | 42.78432 | -76.39985 | 18532 ft | 335 kts | 234° |
| 2026-04-12 22:06 | 42.76874 | -76.42329 | 19013 ft | 337 kts | 234° |
| 2026-04-12 22:06 | 42.75296 | -76.44701 | 19482 ft | 340 kts | 234° |
| 2026-04-12 22:07 | 42.73697 | -76.47102 | 19897 ft | 343 kts | 234° |
| 2026-04-12 22:07 | 42.72097 | -76.49515 | 20324 ft | 346 kts | 234° |
| 2026-04-12 22:07 | 42.70478 | -76.51941 | 20722 ft | 350 kts | 234° |
| 2026-04-12 22:07 | 42.68828 | -76.54417 | 21136 ft | 353 kts | 234° |
| 2026-04-12 22:08 | 42.67179 | -76.56876 | 21555 ft | 356 kts | 233° |
| 2026-04-12 22:08 | 42.65356 | -76.59233 | 21986 ft | 362 kts | 227° |
| 2026-04-12 22:08 | 42.63358 | -76.61295 | 22349 ft | 370 kts | 221° |
| 2026-04-12 22:08 | 42.61144 | -76.63133 | 22689 ft | 376 kts | 217° |
| 2026-04-12 22:09 | 42.58863 | -76.64891 | 23128 ft | 378 kts | 217° |
| 2026-04-12 22:09 | 42.56560 | -76.66653 | 23463 ft | 382 kts | 216° |
| 2026-04-12 22:09 | 42.54212 | -76.68446 | 23789 ft | 386 kts | 216° |
| 2026-04-12 22:09 | 42.52135 | -76.70029 | 24106 ft | 389 kts | 216° |
| 2026-04-12 22:10 | 42.49771 | -76.71834 | 24475 ft | 391 kts | 216° |
| 2026-04-12 22:10 | 42.47378 | -76.73659 | 24860 ft | 393 kts | 216° |
| 2026-04-12 22:10 | 42.45169 | -76.75342 | 25224 ft | 395 kts | 216° |
| 2026-04-12 22:10 | 42.42656 | -76.77262 | 25511 ft | 399 kts | 216° |
| 2026-04-12 22:11 | 42.40252 | -76.79096 | 25864 ft | 401 kts | 216° |
| 2026-04-12 22:11 | 42.37798 | -76.80962 | 26211 ft | 404 kts | 216° |
| 2026-04-12 22:11 | 42.35337 | -76.82837 | 26506 ft | 407 kts | 216° |
| 2026-04-12 22:11 | 42.32870 | -76.84713 | 26892 ft | 407 kts | 216° |
| 2026-04-12 22:12 | 42.30396 | -76.86594 | 27217 ft | 410 kts | 216° |
| 2026-04-12 22:12 | 42.27917 | -76.88478 | 27472 ft | 413 kts | 216° |
| 2026-04-12 22:12 | 42.25414 | -76.90376 | 27751 ft | 416 kts | 216° |
| 2026-04-12 22:12 | 42.22852 | -76.92316 | 28037 ft | 418 kts | 216° |
| 2026-04-12 22:13 | 42.20334 | -76.94222 | 28322 ft | 420 kts | 216° |
| 2026-04-12 22:13 | 42.17775 | -76.96157 | 28614 ft | 422 kts | 216° |
| 2026-04-12 22:13 | 42.15183 | -76.98116 | 28878 ft | 424 kts | 216° |
| 2026-04-12 22:13 | 42.12635 | -77.00038 | 29126 ft | 427 kts | 216° |
| 2026-04-12 22:14 | 42.10008 | -77.02026 | 29388 ft | 428 kts | 217° |
| 2026-04-12 22:14 | 42.07470 | -77.04100 | 29647 ft | 429 kts | 219° |
| 2026-04-12 22:14 | 42.04950 | -77.06213 | 29954 ft | 429 kts | 219° |
| 2026-04-12 22:14 | 42.02383 | -77.08363 | 30219 ft | 431 kts | 219° |
| 2026-04-12 22:15 | 41.99858 | -77.10480 | 30464 ft | 432 kts | 219° |
| 2026-04-12 22:15 | 41.97295 | -77.12621 | 30661 ft | 435 kts | 219° |
| 2026-04-12 22:15 | 41.94693 | -77.14799 | 30933 ft | 436 kts | 219° |
| 2026-04-12 22:15 | 41.92123 | -77.16943 | 31088 ft | 440 kts | 219° |
| 2026-04-12 22:16 | 41.89510 | -77.19124 | 31296 ft | 442 kts | 219° |
| 2026-04-12 22:16 | 41.86902 | -77.21298 | 31566 ft | 442 kts | 219° |
| 2026-04-12 22:16 | 41.84279 | -77.23479 | 31885 ft | 441 kts | 219° |
| 2026-04-12 22:16 | 41.81872 | -77.25479 | 32153 ft | 440 kts | 219° |
| 2026-04-12 22:17 | 41.79275 | -77.27634 | 32491 ft | 438 kts | 219° |
| 2026-04-12 22:17 | 41.76680 | -77.29791 | 32781 ft | 438 kts | 219° |
| 2026-04-12 22:17 | 41.74161 | -77.31880 | 32958 ft | 439 kts | 219° |
| 2026-04-12 22:17 | 41.71547 | -77.34046 | 33207 ft | 439 kts | 219° |
| 2026-04-12 22:18 | 41.68942 | -77.36201 | 33447 ft | 439 kts | 220° |
| 2026-04-12 22:18 | 41.66370 | -77.38329 | 33686 ft | 439 kts | 219° |
| 2026-04-12 22:18 | 41.63776 | -77.40472 | 33995 ft | 437 kts | 219° |
| 2026-04-12 22:18 | 41.61172 | -77.42621 | 34281 ft | 436 kts | 220° |
| 2026-04-12 22:19 | 41.58606 | -77.44732 | 34514 ft | 436 kts | 220° |
| 2026-04-12 22:19 | 41.56028 | -77.46858 | 34638 ft | 438 kts | 220° |
| 2026-04-12 22:19 | 41.53408 | -77.49020 | 34771 ft | 440 kts | 220° |
| 2026-04-12 22:19 | 41.50808 | -77.51154 | 34960 ft | 441 kts | 220° |
| 2026-04-12 22:20 | 41.48198 | -77.53304 | 35166 ft | 441 kts | 220° |
| 2026-04-12 22:20 | 41.45563 | -77.55464 | 35397 ft | 441 kts | 220° |
| 2026-04-12 22:20 | 41.42948 | -77.57605 | 35594 ft | 441 kts | 220° |
| 2026-04-12 22:20 | 41.40323 | -77.59756 | 35779 ft | 441 kts | 221° |
| 2026-04-12 22:21 | 41.37711 | -77.61896 | 35933 ft | 442 kts | 221° |
| 2026-04-12 22:21 | 41.35075 | -77.64053 | 36062 ft | 443 kts | 221° |
| 2026-04-12 22:21 | 41.32468 | -77.66183 | 36165 ft | 445 kts | 220° |
| 2026-04-12 22:21 | 41.29830 | -77.68336 | 36196 ft | 446 kts | 220° |
| 2026-04-12 22:22 | 41.24993 | -77.72281 | 36190 ft | 448 kts | 220° |
| 2026-04-12 22:22 | 41.19726 | -77.76562 | 36197 ft | 448 kts | 220° |
| 2026-04-12 22:23 | 41.14446 | -77.80848 | 36198 ft | 445 kts | 220° |
| 2026-04-12 22:23 | 41.09133 | -77.85152 | 36209 ft | 446 kts | 220° |
| 2026-04-12 22:24 | 41.03818 | -77.89449 | 36215 ft | 447 kts | 220° |
| 2026-04-12 22:24 | 40.98508 | -77.93742 | 36215 ft | 446 kts | 221° |
| 2026-04-12 22:25 | 40.93481 | -77.98405 | 36222 ft | 438 kts | 227° |
| 2026-04-12 22:25 | 40.88941 | -78.03689 | 36223 ft | 431 kts | 233° |
| 2026-04-12 22:26 | 40.85003 | -78.09358 | 36216 ft | 425 kts | 238° |
| 2026-04-12 22:26 | 40.81334 | -78.14971 | 36214 ft | 424 kts | 238° |
| 2026-04-12 22:27 | 40.77395 | -78.20973 | 36220 ft | 428 kts | 238° |
| 2026-04-12 22:27 | 40.73526 | -78.26851 | 36219 ft | 425 kts | 237° |
| 2026-04-12 22:28 | 40.69657 | -78.32719 | 36218 ft | 428 kts | 238° |
| 2026-04-12 22:28 | 40.65750 | -78.38638 | 36209 ft | 428 kts | 238° |
| 2026-04-12 22:29 | 40.61849 | -78.44531 | 36211 ft | 427 kts | 238° |
| 2026-04-12 22:29 | 40.57954 | -78.50398 | 36208 ft | 427 kts | 238° |
| 2026-04-12 22:30 | 40.54026 | -78.56313 | 36209 ft | 427 kts | 238° |
| 2026-04-12 22:30 | 40.50119 | -78.62180 | 36209 ft | 427 kts | 238° |
| 2026-04-12 22:31 | 40.46258 | -78.67971 | 36215 ft | 428 kts | 237° |
| 2026-04-12 22:31 | 40.42456 | -78.73656 | 36219 ft | 428 kts | 237° |
| 2026-04-12 22:32 | 40.38524 | -78.79530 | 36226 ft | 428 kts | 237° |
| 2026-04-12 22:32 | 40.34665 | -78.85279 | 36233 ft | 428 kts | 237° |
| 2026-04-12 22:33 | 40.30723 | -78.91143 | 36236 ft | 430 kts | 237° |
| 2026-04-12 22:33 | 40.26768 | -78.97019 | 36226 ft | 429 kts | 237° |
| 2026-04-12 22:34 | 40.22831 | -79.02849 | 36217 ft | 429 kts | 237° |
| 2026-04-12 22:34 | 40.18870 | -79.08710 | 36218 ft | 430 kts | 237° |
| 2026-04-12 22:35 | 40.14910 | -79.14553 | 36217 ft | 429 kts | 237° |
| 2026-04-12 22:35 | 40.10994 | -79.20411 | 36208 ft | 429 kts | 238° |
| 2026-04-12 22:36 | 40.07076 | -79.26330 | 36210 ft | 427 kts | 237° |
| 2026-04-12 22:36 | 40.03179 | -79.32185 | 36216 ft | 426 kts | 238° |
| 2026-04-12 22:37 | 39.99289 | -79.38025 | 36209 ft | 428 kts | 238° |
| 2026-04-12 22:37 | 39.95384 | -79.43872 | 36207 ft | 428 kts | 237° |
| 2026-04-12 22:38 | 39.91443 | -79.49756 | 36208 ft | 427 kts | 237° |
| 2026-04-12 22:38 | 39.87569 | -79.55532 | 36217 ft | 426 kts | 238° |
| 2026-04-12 22:39 | 39.83753 | -79.61209 | 36220 ft | 426 kts | 237° |
| 2026-04-12 22:40 | 39.77932 | -79.69856 | 36229 ft | 428 kts | 237° |
| 2026-04-12 22:40 | 39.74202 | -79.75382 | 36234 ft | 428 kts | 237° |
| 2026-04-12 22:41 | 39.70972 | -79.80155 | 36231 ft | 426 kts | 237° |
| 2026-04-12 22:41 | 39.66893 | -79.86177 | 36222 ft | 428 kts | 237° |
| 2026-04-12 22:42 | 39.62961 | -79.91972 | 36215 ft | 427 kts | 237° |
| 2026-04-12 22:42 | 39.59036 | -79.97745 | 36210 ft | 427 kts | 236° |
| 2026-04-12 22:43 | 39.54446 | -80.02891 | 36201 ft | 445 kts | 221° |
| 2026-04-12 22:43 | 39.48733 | -80.06377 | 36202 ft | 461 kts | 205° |
| 2026-04-12 22:44 | 39.42296 | -80.07716 | 36204 ft | 476 kts | 188° |
| 2026-04-12 22:44 | 39.35616 | -80.07805 | 36205 ft | 479 kts | 187° |
| 2026-04-12 22:45 | 39.28975 | -80.07842 | 36200 ft | 477 kts | 187° |
| 2026-04-12 22:45 | 39.22326 | -80.07925 | 36201 ft | 477 kts | 187° |
| 2026-04-12 22:46 | 39.15653 | -80.08032 | 36208 ft | 480 kts | 187° |
| 2026-04-12 22:46 | 39.08988 | -80.08133 | 36218 ft | 479 kts | 187° |
| 2026-04-12 22:47 | 39.02313 | -80.08239 | 36223 ft | 480 kts | 187° |
| 2026-04-12 22:47 | 38.95602 | -80.08476 | 36236 ft | 476 kts | 191° |
| 2026-04-12 22:48 | 38.89087 | -80.09583 | 36242 ft | 468 kts | 198° |
| 2026-04-12 22:48 | 38.82866 | -80.11583 | 36247 ft | 465 kts | 203° |
| 2026-04-12 22:49 | 38.76732 | -80.13773 | 36258 ft | 465 kts | 203° |
| 2026-04-12 22:49 | 38.70925 | -80.15817 | 36258 ft | 466 kts | 202° |
| 2026-04-12 22:50 | 38.64570 | -80.18037 | 36268 ft | 464 kts | 203° |
| 2026-04-12 22:50 | 38.58300 | -80.20231 | 36271 ft | 465 kts | 202° |
| 2026-04-12 22:51 | 38.52057 | -80.22407 | 36277 ft | 463 kts | 202° |
| 2026-04-12 22:51 | 38.45835 | -80.24571 | 36275 ft | 465 kts | 202° |